createdAt,value
2022-10-25T00:01:45.117Z,100870.72
2022-10-25T00:04:17.421Z,100871.72
2022-10-25T00:06:49.355Z,100869.66
2022-10-25T00:09:21.189Z,100870.09
2022-10-25T00:11:53.066Z,100879.13
2022-10-25T00:14:25.069Z,100883.72
2022-10-25T00:16:57.014Z,100882.03
2022-10-25T00:19:28.876Z,100877.63
2022-10-25T00:22:00.671Z,100879.31
2022-10-25T00:24:32.566Z,100884.56
2022-10-25T00:27:05.593Z,100877.22
2022-10-25T00:29:37.695Z,100884.75
2022-10-25T00:32:09.576Z,100874.31
2022-10-25T00:34:41.408Z,100872.63
2022-10-25T00:37:13.272Z,100876.41
2022-10-25T00:39:48.121Z,100878.94
2022-10-25T00:42:22.718Z,100882.69
2022-10-25T00:44:56.700Z,100875.38
2022-10-25T00:47:42.004Z,100879.78
2022-10-25T00:50:22.184Z,100891.06
2022-10-25T00:52:56.823Z,100883.13
2022-10-25T00:55:28.835Z,100879.56
2022-10-25T00:58:21.375Z,100890.25
2022-10-25T01:00:53.285Z,100891.31
2022-10-25T01:03:25.450Z,100887.75
2022-10-25T01:05:58.579Z,100885.41
2022-10-25T01:08:30.520Z,100891.50
2022-10-25T01:11:02.416Z,100888.16
2022-10-25T01:13:35.706Z,100887.72
2022-10-25T01:16:19.714Z,100886.66
2022-10-25T01:19:21.493Z,100889.38
2022-10-25T01:22:03.150Z,100886.47
2022-10-25T01:24:59.559Z,100885.81
2022-10-25T01:27:50.262Z,100884.75
2022-10-25T01:30:24.023Z,100885.41
2022-10-25T01:33:14.936Z,100890.84
2022-10-25T01:35:56.909Z,100883.47
2022-10-25T01:38:43.634Z,100891.44
2022-10-25T01:41:28.837Z,100891.44
2022-10-25T01:44:13.721Z,100897.53
2022-10-25T01:46:52.168Z,100892.09
2022-10-25T01:49:28.805Z,100875.09
2022-10-25T01:52:02.581Z,100892.09
2022-10-25T01:54:34.557Z,100892.28
2022-10-25T01:57:22.656Z,100895.22
2022-10-25T02:00:09.611Z,100897.94
2022-10-25T02:03:18.589Z,100888.31
2022-10-25T02:06:00.109Z,100894.38
2022-10-25T02:08:36.205Z,100891.06
2022-10-25T02:11:22.676Z,100886.00
2022-10-25T02:14:19.378Z,100887.88
2022-10-25T02:16:57.566Z,100891.44
2022-10-25T02:19:38.701Z,100893.97
2022-10-25T02:22:11.479Z,100900.66
2022-10-25T02:24:45.959Z,100898.38
2022-10-25T02:27:20.565Z,100905.31
2022-10-25T02:29:53.790Z,100899.22
2022-10-25T02:32:25.789Z,100907.41
2022-10-25T02:34:57.618Z,100906.56
2022-10-25T02:37:29.546Z,100907.00
2022-10-25T02:40:01.427Z,100906.56
2022-10-25T02:42:33.228Z,100905.72
2022-10-25T02:45:05.545Z,100902.78
2022-10-25T02:47:37.583Z,100904.47
2022-10-25T02:50:09.717Z,100906.13
2022-10-25T02:52:41.503Z,100916.16
2022-10-25T02:55:13.351Z,100915.38
2022-10-25T02:57:45.179Z,100917.84
2022-10-25T03:00:17.412Z,100919.09
2022-10-25T03:02:49.650Z,100922.66
2022-10-25T03:05:21.763Z,100923.75
2022-10-25T03:07:53.553Z,100922.06
2022-10-25T03:10:25.457Z,100932.53
2022-10-25T03:12:57.257Z,100931.91
2022-10-25T03:15:29.195Z,100924.16
2022-10-25T03:18:01.185Z,100924.16
2022-10-25T03:20:33.389Z,100926.88
2022-10-25T03:23:05.436Z,100933.34
2022-10-25T03:25:37.664Z,100940.06
2022-10-25T03:28:09.581Z,100941.72
2022-10-25T03:30:41.994Z,100945.97
2022-10-25T03:33:14.054Z,100940.72
2022-10-25T03:35:45.844Z,100950.97
2022-10-25T03:38:17.692Z,100956.44
2022-10-25T03:40:49.640Z,100958.06
2022-10-25T03:43:24.497Z,100956.44
2022-10-25T03:45:56.629Z,100952.25
2022-10-25T03:48:28.429Z,100956.66
2022-10-25T03:51:00.338Z,100955.59
2022-10-25T03:53:32.335Z,100951.81
2022-10-25T03:56:04.408Z,100959.78
2022-10-25T03:58:36.307Z,100956.81
2022-10-25T04:01:09.615Z,100960.19
2022-10-25T04:03:41.567Z,100959.34
2022-10-25T04:06:13.427Z,100971.09
2022-10-25T04:08:45.537Z,100969.00
2022-10-25T04:11:17.354Z,100969.00
2022-10-25T04:13:49.245Z,100966.88
2022-10-25T04:16:21.124Z,100961.41
2022-10-25T04:18:53.649Z,100969.19
2022-10-25T04:21:26.329Z,100968.34
2022-10-25T04:24:00.546Z,100972.97
2022-10-25T04:26:36.683Z,100971.47
2022-10-25T04:29:09.464Z,100975.25
2022-10-25T04:31:41.502Z,100976.28
2022-10-25T04:34:13.372Z,100971.91
2022-10-25T04:36:45.177Z,100980.09
2022-10-25T04:39:17.021Z,100972.31
2022-10-25T04:41:48.892Z,100976.09
2022-10-25T04:44:20.725Z,100974.00
2022-10-25T04:46:53.071Z,100980.09
2022-10-25T04:49:24.939Z,100969.19
2022-10-25T04:51:58.036Z,100975.88
2022-10-25T04:54:29.893Z,100973.59
2022-10-25T04:57:01.940Z,100977.38
2022-10-25T04:59:33.945Z,100982.22
2022-10-25T05:02:05.928Z,100981.59
2022-10-25T05:04:37.744Z,100988.03
2022-10-25T05:07:09.540Z,100985.31
2022-10-25T05:09:43.892Z,100997.94
2022-10-25T05:12:18.399Z,100983.25
2022-10-25T05:14:50.239Z,100985.16
2022-10-25T05:17:22.117Z,100980.34
2022-10-25T05:19:54.167Z,100984.94
2022-10-25T05:22:26.247Z,100990.41
2022-10-25T05:24:58.296Z,100980.72
2022-10-25T05:27:30.185Z,100983.22
2022-10-25T05:30:01.988Z,100991.63
2022-10-25T05:32:33.964Z,100985.34
2022-10-25T05:35:06.014Z,100989.97
2022-10-25T05:37:37.792Z,100986.19
2022-10-25T05:40:10.246Z,100996.00
2022-10-25T05:42:42.110Z,101000.41
2022-10-25T05:45:13.949Z,101011.31
2022-10-25T05:47:45.830Z,101007.13
2022-10-25T05:50:17.762Z,101013.88
2022-10-25T05:52:50.013Z,101001.91
2022-10-25T05:55:21.970Z,101011.75
2022-10-25T05:57:53.815Z,101013.44
2022-10-25T06:00:26.186Z,101019.50
2022-10-25T06:03:01.607Z,101018.44
2022-10-25T06:05:33.560Z,101018.44
2022-10-25T06:08:05.388Z,101031.22
2022-10-25T06:10:37.271Z,101028.75
2022-10-25T06:13:09.286Z,101031.47
2022-10-25T06:15:41.530Z,101034.78
2022-10-25T06:18:13.352Z,101026.41
2022-10-25T06:20:45.396Z,101046.94
2022-10-25T06:23:17.335Z,101043.81
2022-10-25T06:25:49.176Z,101043.81
2022-10-25T06:28:20.990Z,101050.31
2022-10-25T06:30:52.831Z,101051.16
2022-10-25T06:33:27.893Z,101042.34
2022-10-25T06:36:01.694Z,101053.66
2022-10-25T06:38:33.962Z,101053.66
2022-10-25T06:41:09.411Z,101064.56
2022-10-25T06:43:41.336Z,101051.78
2022-10-25T06:46:22.624Z,101059.13
2022-10-25T06:48:55.783Z,101061.66
2022-10-25T06:51:28.937Z,101065.81
2022-10-25T06:54:01.859Z,101067.50
2022-10-25T06:56:34.189Z,101065.81
2022-10-25T06:59:07.332Z,101072.94
2022-10-25T07:01:39.500Z,101077.56
2022-10-25T07:04:11.476Z,101085.34
2022-10-25T07:06:43.553Z,101082.38
2022-10-25T07:09:15.922Z,101084.06
2022-10-25T07:11:48.048Z,101094.56
2022-10-25T07:14:19.911Z,101104.38
2022-10-25T07:16:51.790Z,101103.13
2022-10-25T07:19:24.590Z,101093.06
2022-10-25T07:21:56.451Z,101101.84
2022-10-25T07:24:28.480Z,101100.19
2022-10-25T07:27:00.432Z,101103.94
2022-10-25T07:29:32.596Z,101096.41
2022-10-25T07:32:04.531Z,101105.19
2022-10-25T07:34:36.728Z,101101.03
2022-10-25T07:37:12.654Z,101096.38
2022-10-25T07:39:45.952Z,101109.59
2022-10-25T07:42:18.817Z,101103.94
2022-10-25T07:44:50.988Z,101118.19
2022-10-25T07:47:22.837Z,101120.50
2022-10-25T07:49:57.728Z,101121.13
2022-10-25T07:52:29.452Z,101121.94
2022-10-25T07:55:01.321Z,101134.75
2022-10-25T07:57:33.340Z,101135.78
2022-10-25T08:00:07.100Z,101134.53
2022-10-25T08:02:39.407Z,101131.81
2022-10-25T08:05:11.327Z,101140.59
2022-10-25T08:07:43.967Z,101141.25
2022-10-25T08:10:16.197Z,101146.50
2022-10-25T08:12:49.660Z,101141.03
2022-10-25T08:15:24.161Z,101147.34
2022-10-25T08:18:03.261Z,101150.91
2022-10-25T08:21:03.702Z,101159.09
2022-10-25T08:23:27.976Z,101148.59
2022-10-25T08:26:00.951Z,101153.00
2022-10-25T08:28:33.101Z,101160.97
2022-10-25T08:31:04.952Z,101170.00
2022-10-25T08:33:36.923Z,101175.03
2022-10-25T08:36:09.189Z,101164.75
2022-10-25T08:38:42.099Z,101174.78
2022-10-25T08:41:39.787Z,101174.13
2022-10-25T08:44:20.761Z,101173.94
2022-10-25T08:47:14.214Z,101182.31
2022-10-25T08:50:04.358Z,101185.69
2022-10-25T08:52:55.667Z,101193.22
2022-10-25T08:55:33.405Z,101198.25
2022-10-25T08:58:09.966Z,101201.19
2022-10-25T09:00:43.474Z,101207.47
2022-10-25T09:03:25.664Z,101203.25
2022-10-25T09:06:03.448Z,101210.00
2022-10-25T09:08:47.570Z,101214.19
2022-10-25T09:11:31.260Z,101205.81
2022-10-25T09:14:16.265Z,101219.66
2022-10-25T09:16:59.493Z,101225.31
2022-10-25T09:19:35.051Z,101220.50
2022-10-25T09:22:24.440Z,101219.44
2022-10-25T09:25:18.197Z,101219.66
2022-10-25T09:28:25.113Z,101217.13
2022-10-25T09:30:57.418Z,101217.97
2022-10-25T09:33:30.575Z,101208.69
2022-10-25T09:36:03.885Z,101225.91
2022-10-25T09:38:49.713Z,101224.19
2022-10-25T09:41:28.330Z,101232.59
2022-10-25T09:44:19.999Z,101226.28
2022-10-25T09:46:55.415Z,101227.31
2022-10-25T09:49:32.264Z,101243.44
2022-10-25T09:52:12.489Z,101240.91
2022-10-25T09:55:28.651Z,101241.53
2022-10-25T09:58:01.510Z,101244.88
2022-10-25T10:00:36.812Z,101245.91
2022-10-25T10:03:11.513Z,101249.28
2022-10-25T10:05:52.224Z,101237.31
2022-10-25T10:08:24.937Z,101242.97
2022-10-25T10:10:57.384Z,101252.66
2022-10-25T10:13:53.857Z,101256.44
2022-10-25T10:16:27.758Z,101249.91
2022-10-25T10:19:21.144Z,101248.00
2022-10-25T10:21:57.735Z,101253.03
2022-10-25T10:24:38.501Z,101256.38
2022-10-25T10:27:13.293Z,101255.13
2022-10-25T10:30:03.604Z,101262.28
2022-10-25T10:35:32.667Z,101262.28
2022-10-25T10:38:13.606Z,101260.56
2022-10-25T10:40:47.948Z,101265.38
2022-10-25T10:43:26.112Z,101272.72
2022-10-25T10:46:02.729Z,101266.78
2022-10-25T10:48:42.131Z,101265.09
2022-10-25T10:51:42.866Z,101269.91
2022-10-25T10:54:15.099Z,101258.72
2022-10-25T10:57:31.500Z,101263.13
2022-10-25T11:00:05.699Z,101256.16
2022-10-25T11:02:40.908Z,101260.38
2022-10-25T11:05:26.305Z,101252.94
2022-10-25T11:08:19.223Z,101267.19
2022-10-25T11:10:51.615Z,101280.16
2022-10-25T11:13:27.906Z,101279.44
2022-10-25T11:16:28.530Z,101286.38
2022-10-25T11:19:15.777Z,101287.06
2022-10-25T11:22:12.293Z,101295.38
2022-10-25T11:25:21.234Z,101299.38
2022-10-25T11:28:28.275Z,101300.47
2022-10-25T11:31:24.350Z,101290.56
2022-10-25T11:34:09.973Z,101298.81
2022-10-25T11:36:51.603Z,101294.56
2022-10-25T11:39:38.089Z,101302.31
2022-10-25T11:42:34.417Z,101308.41
2022-10-25T11:45:39.561Z,101299.13
2022-10-25T11:48:34.633Z,101303.41
2022-10-25T11:51:10.209Z,101299.47
2022-10-25T11:54:00.752Z,101299.75
2022-10-25T11:57:11.492Z,101291.66
2022-10-25T11:59:52.353Z,101290.75
2022-10-25T12:02:33.515Z,101296.97
2022-10-25T12:05:10.955Z,101299.72
2022-10-25T12:08:08.064Z,101298.00
2022-10-25T12:10:48.517Z,101296.75
2022-10-25T12:13:29.949Z,101302.66
2022-10-25T12:16:03.727Z,101298.50
2022-10-25T12:18:39.110Z,101306.44
2022-10-25T12:21:15.491Z,101302.38
2022-10-25T12:23:49.686Z,101306.66
2022-10-25T12:26:35.617Z,101309.47
2022-10-25T12:29:14.781Z,101300.28
2022-10-25T12:31:50.429Z,101307.47
2022-10-25T12:34:30.115Z,101305.75
2022-10-25T12:37:11.970Z,101323.00
2022-10-25T12:39:44.904Z,101318.53
2022-10-25T12:43:05.737Z,101322.53
2022-10-25T12:46:11.762Z,101328.97
2022-10-25T12:48:52.527Z,101337.81
2022-10-25T12:51:32.975Z,101344.69
2022-10-25T12:54:19.815Z,101345.78
2022-10-25T12:57:02.617Z,101343.78
2022-10-25T12:59:48.624Z,101347.19
2022-10-25T13:02:23.452Z,101349.47
2022-10-25T13:05:07.541Z,101342.09
2022-10-25T13:07:39.559Z,101344.06
2022-10-25T13:10:21.489Z,101346.44
2022-10-25T13:13:05.985Z,101345.31
2022-10-25T13:15:46.083Z,101345.28
2022-10-25T13:18:28.650Z,101339.88
2022-10-25T13:21:04.594Z,101345.22
2022-10-25T13:23:42.392Z,101354.81
2022-10-25T13:26:21.798Z,101351.19
2022-10-25T13:29:14.932Z,101355.19
2022-10-25T13:31:48.176Z,101356.38
2022-10-25T13:34:22.581Z,101368.09
2022-10-25T13:37:01.849Z,101359.94
2022-10-25T13:39:42.491Z,101366.75
2022-10-25T13:42:14.583Z,101375.41
2022-10-25T13:45:03.368Z,101369.69
2022-10-25T13:47:39.858Z,101369.91
2022-10-25T13:50:28.212Z,101376.25
2022-10-25T13:53:02.898Z,101374.97
2022-10-25T13:55:37.527Z,101378.91
2022-10-25T13:58:31.317Z,101371.44
2022-10-25T14:01:16.175Z,101381.97
2022-10-25T14:04:03.402Z,101370.16
2022-10-25T14:06:37.079Z,101381.19
2022-10-25T14:09:27.904Z,101380.03
2022-10-25T14:12:02.954Z,101381.88
2022-10-25T14:15:09.176Z,101384.50
2022-10-25T14:17:43.042Z,101378.91
2022-10-25T14:20:29.684Z,101376.94
2022-10-25T14:23:03.460Z,101384.13
2022-10-25T14:25:37.639Z,101382.44
2022-10-25T14:28:24.463Z,101383.28
2022-10-25T14:31:00.946Z,101372.56
2022-10-25T14:33:33.847Z,101368.38
2022-10-25T14:36:36.060Z,101379.09
2022-10-25T14:39:38.311Z,101382.91
2022-10-25T14:42:16.776Z,101378.50
2022-10-25T14:44:50.079Z,101381.22
2022-10-25T14:47:32.615Z,101378.91
2022-10-25T14:52:49.770Z,101378.72
2022-10-25T14:55:28.604Z,101382.38
2022-10-25T14:58:03.300Z,101381.19
2022-10-25T15:00:35.189Z,101388.78
2022-10-25T15:03:07.800Z,101384.44
2022-10-25T15:05:40.827Z,101393.13
2022-10-25T15:08:21.471Z,101398.22
2022-10-25T15:10:58.715Z,101390.66
2022-10-25T15:13:39.607Z,101388.56
2022-10-25T15:16:27.632Z,101393.03
2022-10-25T15:19:08.569Z,101396.19
2022-10-25T15:21:44.371Z,101396.63
2022-10-25T15:24:17.990Z,101402.97
2022-10-25T15:27:00.487Z,101392.88
2022-10-25T15:29:52.728Z,101393.72
2022-10-25T15:32:27.853Z,101397.13
2022-10-25T15:35:02.340Z,101392.09
2022-10-25T15:37:34.601Z,101391.84
2022-10-25T15:40:15.278Z,101402.41
2022-10-25T15:42:47.406Z,101396.72
2022-10-25T15:45:19.489Z,101404.28
2022-10-25T15:47:53.481Z,101406.00
2022-10-25T15:50:25.905Z,101400.53
2022-10-25T15:52:58.393Z,101399.28
2022-10-25T15:55:33.284Z,101405.81
2022-10-25T15:58:09.681Z,101403.28
2022-10-25T16:00:43.136Z,101403.53
2022-10-25T16:03:24.652Z,101412.13
2022-10-25T16:05:56.534Z,101401.63
2022-10-25T16:08:28.598Z,101406.66
2022-10-25T16:11:00.653Z,101410.03
2022-10-25T16:13:37.449Z,101419.53
2022-10-25T16:16:41.058Z,101417.00
2022-10-25T16:19:17.286Z,101411.97
2022-10-25T16:21:49.309Z,101418.69
2022-10-25T16:24:21.321Z,101417.84
2022-10-25T16:26:53.422Z,101417.84
2022-10-25T16:29:25.491Z,101418.91
2022-10-25T16:31:57.347Z,101425.81
2022-10-25T16:34:29.405Z,101426.25
2022-10-25T16:37:01.443Z,101430.69
2022-10-25T16:39:33.306Z,101430.69
2022-10-25T16:42:05.465Z,101432.38
2022-10-25T16:44:37.452Z,101434.66
2022-10-25T16:47:09.247Z,101432.56
2022-10-25T16:49:41.339Z,101436.56
2022-10-25T16:52:14.052Z,101440.97
2022-10-25T16:54:46.989Z,101443.06
2022-10-25T16:57:18.907Z,101440.53
2022-10-25T16:59:50.827Z,101440.13
2022-10-25T17:02:24.816Z,101440.13
2022-10-25T17:04:56.797Z,101439.28
2022-10-25T17:07:28.589Z,101446.03
2022-10-25T17:10:01.598Z,101446.88
2022-10-25T17:12:33.485Z,101444.34
2022-10-25T17:15:05.940Z,101442.25
2022-10-25T17:17:38.152Z,101445.59
2022-10-25T17:20:11.660Z,101443.09
2022-10-25T17:22:44.668Z,101442.66
2022-10-25T17:25:16.526Z,101444.75
2022-10-25T17:27:52.095Z,101455.28
2022-10-25T17:30:23.930Z,101456.09
2022-10-25T17:32:55.840Z,101463.25
2022-10-25T17:35:29.933Z,101467.22
2022-10-25T17:38:01.753Z,101467.84
2022-10-25T17:40:33.618Z,101476.28
2022-10-25T17:43:05.685Z,101472.06
2022-10-25T17:45:37.684Z,101472.47
2022-10-25T17:48:09.489Z,101472.69
2022-10-25T17:50:42.549Z,101474.13
2022-10-25T17:53:14.463Z,101474.13
2022-10-25T17:55:46.398Z,101471.38
2022-10-25T17:58:18.367Z,101474.50
2022-10-25T18:00:50.387Z,101484.16
2022-10-25T18:03:22.215Z,101478.28
2022-10-25T18:05:54.001Z,101475.38
2022-10-25T18:08:25.764Z,101480.41
2022-10-25T18:10:57.642Z,101475.78
2022-10-25T18:13:29.666Z,101483.31
2022-10-25T18:16:01.553Z,101473.69
2022-10-25T18:18:34.106Z,101470.72
2022-10-25T18:21:09.091Z,101472.81
2022-10-25T18:23:41.986Z,101477.00
2022-10-25T18:26:16.363Z,101477.44
2022-10-25T18:28:50.058Z,101474.47
2022-10-25T18:31:22.472Z,101475.72
2022-10-25T18:34:03.979Z,101482.63
2022-10-25T18:36:35.849Z,101484.94
2022-10-25T18:39:08.051Z,101485.97
2022-10-25T18:41:40.923Z,101478.22
2022-10-25T18:44:15.219Z,101482.59
2022-10-25T18:46:47.371Z,101485.75
2022-10-25T18:49:19.345Z,101476.06
2022-10-25T18:51:51.439Z,101479.88
2022-10-25T18:54:23.555Z,101481.53
2022-10-25T18:56:55.418Z,101473.97
2022-10-25T18:59:27.184Z,101476.06
2022-10-25T19:01:59.268Z,101472.50
2022-10-25T19:04:31.616Z,101472.69
2022-10-25T19:07:03.434Z,101472.88
2022-10-25T19:09:35.271Z,101471.41
2022-10-25T19:12:07.146Z,101482.31
2022-10-25T19:14:39.224Z,101484.03
2022-10-25T19:17:11.360Z,101482.97
2022-10-25T19:19:43.382Z,101481.28
2022-10-25T19:22:15.747Z,101481.69
2022-10-25T19:24:48.155Z,101481.06
2022-10-25T19:27:20.100Z,101484.81
2022-10-25T19:29:52.055Z,101482.94
2022-10-25T19:32:23.957Z,101485.66
2022-10-25T19:34:55.895Z,101482.28
2022-10-25T19:37:28.313Z,101479.78
2022-10-25T19:40:00.323Z,101475.56
2022-10-25T19:42:32.099Z,101481.22
2022-10-25T19:45:05.103Z,101475.75
2022-10-25T19:47:37.139Z,101474.09
2022-10-25T19:50:09.187Z,101478.91
2022-10-25T19:52:41.144Z,101480.97
2022-10-25T19:55:13.089Z,101486.44
2022-10-25T19:57:45.167Z,101488.53
2022-10-25T20:00:17.321Z,101482.25
2022-10-25T20:02:49.268Z,101487.88
2022-10-25T20:05:22.430Z,101485.56
2022-10-25T20:07:54.309Z,101498.56
2022-10-25T20:10:26.518Z,101496.84
2022-10-25T20:12:58.762Z,101492.47
2022-10-25T20:15:30.576Z,101493.91
2022-10-25T20:18:02.556Z,101497.47
2022-10-25T20:20:34.780Z,101500.41
2022-10-25T20:23:07.126Z,101502.28
2022-10-25T20:25:38.934Z,101497.69
2022-10-25T20:28:10.895Z,101505.44
2022-10-25T20:30:42.863Z,101508.19
2022-10-25T20:33:15.516Z,101508.84
2022-10-25T20:35:47.687Z,101515.31
2022-10-25T20:38:19.605Z,101514.03
2022-10-25T20:40:51.599Z,101519.50
2022-10-25T20:43:23.424Z,101516.13
2022-10-25T20:45:55.253Z,101514.66
2022-10-25T20:48:27.178Z,101514.00
2022-10-25T20:51:04.021Z,101525.72
2022-10-25T20:53:38.821Z,101533.25
2022-10-25T20:56:10.951Z,101533.66
2022-10-25T20:58:43.143Z,101530.25
2022-10-25T21:01:15.424Z,101534.22
2022-10-25T21:03:47.562Z,101534.41
2022-10-25T21:06:19.564Z,101533.78
2022-10-25T21:08:51.555Z,101534.84
2022-10-25T21:11:23.535Z,101543.00
2022-10-25T21:13:55.466Z,101551.38
2022-10-25T21:16:27.601Z,101546.09
2022-10-25T21:19:02.956Z,101550.72
2022-10-25T21:21:35.257Z,101550.72
2022-10-25T21:24:09.968Z,101549.91
2022-10-25T21:26:42.007Z,101548.41
2022-10-25T21:29:14.154Z,101554.69
2022-10-25T21:31:48.041Z,101551.97
2022-10-25T21:34:19.962Z,101561.16
2022-10-25T21:36:51.902Z,101559.47
2022-10-25T21:39:24.565Z,101556.13
2022-10-25T21:41:56.383Z,101563.28
2022-10-25T21:44:28.347Z,101562.59
2022-10-25T21:47:00.206Z,101558.19
2022-10-25T21:49:32.100Z,101553.78
2022-10-25T21:52:04.111Z,101562.34
2022-10-25T21:54:36.045Z,101558.97
2022-10-25T21:57:07.935Z,101561.06
2022-10-25T21:59:40.290Z,101554.78
2022-10-25T22:02:12.250Z,101561.25
2022-10-25T22:04:44.369Z,101559.78
2022-10-25T22:07:16.543Z,101561.84
2022-10-25T22:09:48.367Z,101559.31
2022-10-25T22:12:20.362Z,101567.88
2022-10-25T22:14:52.427Z,101562.84
2022-10-25T22:17:24.353Z,101560.31
2022-10-25T22:19:56.375Z,101552.13
2022-10-25T22:22:28.361Z,101565.94
2022-10-25T22:25:00.355Z,101570.53
2022-10-25T22:27:32.357Z,101570.53
2022-10-25T22:30:04.516Z,101567.81
2022-10-25T22:32:36.412Z,101568.66
2022-10-25T22:35:08.446Z,101566.78
2022-10-25T22:37:40.597Z,101569.50
2022-10-25T22:40:12.765Z,101568.66
2022-10-25T22:42:44.777Z,101563.41
2022-10-25T22:45:16.830Z,101557.97
2022-10-25T22:47:51.501Z,101561.75
2022-10-25T22:50:23.658Z,101565.50
2022-10-25T22:52:55.684Z,101567.56
2022-10-25T22:55:27.651Z,101569.66
2022-10-25T22:57:59.593Z,101567.28
2022-10-25T23:00:31.406Z,101564.97
2022-10-25T23:03:03.379Z,101567.50
2022-10-25T23:05:35.216Z,101563.94
2022-10-25T23:08:07.292Z,101570.41
2022-10-25T23:10:39.170Z,101567.69
2022-10-25T23:13:11.210Z,101567.03
2022-10-25T23:15:43.060Z,101560.31
2022-10-25T23:18:14.853Z,101565.75
2022-10-25T23:20:50.945Z,101565.75
2022-10-25T23:23:23.932Z,101562.00
2022-10-25T23:25:59.634Z,101564.72
2022-10-25T23:28:33.073Z,101561.16
2022-10-25T23:31:06.759Z,101558.44
2022-10-25T23:33:39.300Z,101566.41
2022-10-25T23:36:13.611Z,101562.00
2022-10-25T23:38:46.389Z,101554.84
2022-10-25T23:41:19.664Z,101559.47
2022-10-25T23:43:51.614Z,101556.94
2022-10-25T23:46:23.490Z,101554.22
2022-10-25T23:48:55.481Z,101556.09
2022-10-25T23:51:27.422Z,101556.94
2022-10-25T23:53:59.314Z,101555.72
2022-10-25T23:56:31.343Z,101554.50
2022-10-25T23:59:03.804Z,101550.69
